createdAt,value
2018-02-21T00:01:21.453Z,72.62
2018-02-21T00:03:48.918Z,67.20
2018-02-21T00:06:16.410Z,66.53
2018-02-21T00:08:43.870Z,72.43
2018-02-21T00:11:11.315Z,70.05
2018-02-21T00:13:38.803Z,59.47
2018-02-21T00:16:06.855Z,56.00
2018-02-21T00:18:34.433Z,73.05
2018-02-21T00:21:01.940Z,67.23
2018-02-21T00:23:29.388Z,62.00
2018-02-21T00:25:56.887Z,64.80
2018-02-21T00:28:24.351Z,58.40
2018-02-21T00:30:51.833Z,65.60
2018-02-21T00:33:19.308Z,66.10
2018-02-21T00:35:46.793Z,71.55
2018-02-21T00:38:15.550Z,69.15
2018-02-21T00:40:43.018Z,64.97
2018-02-21T00:43:10.488Z,64.43
2018-02-21T00:45:37.988Z,69.90
2018-02-21T00:48:05.449Z,71.97
2018-02-21T00:50:32.911Z,68.37
2018-02-21T00:53:00.410Z,65.70
2018-02-21T00:55:27.898Z,76.47
2018-02-21T00:57:55.402Z,63.20
2018-02-21T01:00:23.507Z,82.90
2018-02-21T01:02:50.963Z,73.93
2018-02-21T01:05:18.463Z,79.07
2018-02-21T01:07:45.929Z,72.55
2018-02-21T01:10:13.381Z,75.07
2018-02-21T01:12:41.097Z,80.97
2018-02-21T01:15:08.593Z,79.13
2018-02-21T01:17:37.386Z,78.73
2018-02-21T01:20:04.835Z,74.17
2018-02-21T01:22:32.688Z,78.45
2018-02-21T01:25:00.144Z,67.03
2018-02-21T01:27:27.625Z,68.43
2018-02-21T01:29:55.082Z,77.90
2018-02-21T01:32:22.557Z,68.37
2018-02-21T01:34:50.957Z,69.15
2018-02-21T01:37:18.400Z,75.87
2018-02-21T01:39:45.950Z,76.10
2018-02-21T01:42:13.364Z,69.77
2018-02-21T01:44:40.817Z,80.30
2018-02-21T01:47:08.301Z,72.07
2018-02-21T01:49:35.766Z,69.35
2018-02-21T01:52:03.328Z,80.00
2018-02-21T01:54:30.777Z,62.27
2018-02-21T01:56:58.912Z,87.40
2018-02-21T01:59:26.372Z,78.85
2018-02-21T02:01:54.633Z,75.33
2018-02-21T02:04:25.970Z,67.93
2018-02-21T02:06:53.900Z,69.40
2018-02-21T02:09:21.460Z,60.12
2018-02-21T02:11:48.927Z,70.90
2018-02-21T02:14:16.368Z,75.53
2018-02-21T02:16:43.841Z,80.75
2018-02-21T02:19:14.736Z,64.57
2018-02-21T02:21:42.180Z,75.34
2018-02-21T02:24:09.765Z,73.63
2018-02-21T02:26:37.855Z,77.30
2018-02-21T02:29:05.419Z,89.07
2018-02-21T02:31:32.890Z,76.00
2018-02-21T02:34:00.335Z,74.73
2018-02-21T02:36:28.035Z,74.95
2018-02-21T02:39:07.206Z,81.20
2018-02-21T02:41:34.709Z,75.80
2018-02-21T02:44:02.403Z,71.17
2018-02-21T02:46:29.916Z,79.60
2018-02-21T02:48:57.710Z,81.53
2018-02-21T02:51:25.267Z,79.00
2018-02-21T02:53:53.192Z,83.87
2018-02-21T02:56:20.659Z,74.03
2018-02-21T02:58:48.127Z,77.60
2018-02-21T03:01:15.575Z,82.40
2018-02-21T03:03:43.106Z,85.55
2018-02-21T03:06:10.577Z,89.83
2018-02-21T03:08:38.872Z,82.53
2018-02-21T03:11:07.665Z,79.43
2018-02-21T03:13:35.172Z,88.80
2018-02-21T03:16:03.428Z,82.03
2018-02-21T03:18:31.512Z,92.15
2018-02-21T03:20:58.992Z,86.23
2018-02-21T03:23:26.480Z,91.55
2018-02-21T03:25:53.978Z,87.75
2018-02-21T03:28:21.427Z,93.90
2018-02-21T03:30:48.891Z,79.37
2018-02-21T03:33:16.355Z,82.73
2018-02-21T03:35:49.834Z,91.03
2018-02-21T03:38:17.312Z,85.03
2018-02-21T03:40:45.885Z,81.32
2018-02-21T03:43:13.365Z,97.13
2018-02-21T03:45:40.890Z,86.65
2018-02-21T03:48:08.520Z,88.67
2018-02-21T03:50:39.500Z,110.43
2018-02-21T03:53:06.995Z,85.80
2018-02-21T03:55:35.029Z,81.76
2018-02-21T03:58:02.501Z,96.97
2018-02-21T04:00:29.994Z,85.93
2018-02-21T04:02:57.440Z,97.57
2018-02-21T04:05:28.257Z,84.17
2018-02-21T04:07:55.757Z,82.30
2018-02-21T04:10:23.223Z,96.30
2018-02-21T04:12:50.884Z,90.63
2018-02-21T04:15:19.188Z,66.80
2018-02-21T04:17:46.669Z,69.77
2018-02-21T04:20:14.136Z,84.73
2018-02-21T04:22:45.705Z,105.78
2018-02-21T04:25:14.569Z,96.93
2018-02-21T04:27:42.060Z,80.73
2018-02-21T04:30:09.542Z,85.57
2018-02-21T04:32:37.061Z,96.93
2018-02-21T04:35:04.661Z,87.20
2018-02-21T04:37:33.804Z,89.60
2018-02-21T04:40:01.285Z,76.97
2018-02-21T04:42:28.731Z,87.17
2018-02-21T04:44:56.201Z,87.70
2018-02-21T04:47:23.701Z,74.13
2018-02-21T04:49:51.148Z,85.40
2018-02-21T04:52:22.216Z,83.75
2018-02-21T04:54:55.645Z,83.90
2018-02-21T04:57:26.585Z,89.07
2018-02-21T05:00:01.633Z,86.03
2018-02-21T05:02:29.482Z,37.45
2018-02-21T05:04:56.960Z,84.28
2018-02-21T05:07:24.457Z,82.60
2018-02-21T05:09:51.921Z,78.97
2018-02-21T05:12:19.416Z,79.67
2018-02-21T05:14:47.117Z,70.78
2018-02-21T05:17:14.595Z,87.63
2018-02-21T05:19:42.055Z,72.37
2018-02-21T05:22:13.466Z,82.95
2018-02-21T05:24:40.946Z,79.90
2018-02-21T05:27:08.492Z,87.87
2018-02-21T05:29:35.946Z,81.10
2018-02-21T05:32:03.430Z,81.82
2018-02-21T05:34:30.884Z,78.05
2018-02-21T05:37:02.648Z,78.70
2018-02-21T05:39:30.104Z,79.97
2018-02-21T05:41:58.352Z,92.88
2018-02-21T05:44:25.862Z,82.53
2018-02-21T05:46:53.336Z,88.50
2018-02-21T05:49:20.805Z,86.63
2018-02-21T05:51:48.282Z,85.07
2018-02-21T05:54:15.724Z,86.68
2018-02-21T05:56:43.196Z,88.12
2018-02-21T05:59:11.700Z,87.04
2018-02-21T06:01:39.169Z,85.23
2018-02-21T06:04:06.686Z,90.60
2018-02-21T06:06:34.148Z,71.47
2018-02-21T06:09:01.612Z,80.43
2018-02-21T06:11:29.155Z,86.23
2018-02-21T06:13:56.634Z,84.15
2018-02-21T06:16:25.004Z,85.62
2018-02-21T06:18:52.447Z,98.53
2018-02-21T06:21:20.122Z,83.00
2018-02-21T06:23:47.588Z,107.25
2018-02-21T06:26:15.064Z,81.43
2018-02-21T06:28:42.554Z,95.20
2018-02-21T06:31:09.992Z,89.73
2018-02-21T06:33:37.746Z,74.32
2018-02-21T06:36:05.176Z,87.80
2018-02-21T06:38:38.405Z,80.12
2018-02-21T06:41:05.906Z,95.00
2018-02-21T06:43:33.978Z,89.90
2018-02-21T06:46:02.232Z,107.15
2018-02-21T06:48:29.755Z,86.40
2018-02-21T06:51:00.037Z,92.50
2018-02-21T06:53:32.429Z,96.82
2018-02-21T06:55:59.914Z,92.63
2018-02-21T06:58:27.652Z,90.20
2018-02-21T07:00:55.125Z,93.22
2018-02-21T07:03:23.216Z,102.78
2018-02-21T07:05:50.715Z,87.05
2018-02-21T07:08:18.183Z,88.33
2018-02-21T07:10:45.761Z,75.37
2018-02-21T07:13:13.345Z,75.34
2018-02-21T07:15:40.887Z,84.90
2018-02-21T07:18:08.416Z,77.07
2018-02-21T07:20:35.967Z,88.80
2018-02-21T07:23:03.437Z,85.50
2018-02-21T07:25:39.993Z,86.32
2018-02-21T07:28:07.803Z,83.60
2018-02-21T07:30:35.241Z,78.17
2018-02-21T07:33:02.722Z,81.10
2018-02-21T07:35:31.731Z,86.20
2018-02-21T07:37:59.177Z,80.03
2018-02-21T07:40:31.694Z,70.90
2018-02-21T07:42:59.304Z,91.00
2018-02-21T07:45:28.381Z,69.60
2018-02-21T07:47:56.006Z,78.70
2018-02-21T07:50:23.598Z,84.80
2018-02-21T07:52:51.976Z,68.22
2018-02-21T07:55:19.433Z,87.82
2018-02-21T07:57:46.902Z,69.63
2018-02-21T08:00:14.400Z,69.47
2018-02-21T08:02:41.872Z,81.43
2018-02-21T08:05:09.333Z,63.08
2018-02-21T08:07:36.826Z,69.07
2018-02-21T08:10:04.291Z,74.95
2018-02-21T08:12:31.735Z,73.07
2018-02-21T08:14:59.225Z,75.93
2018-02-21T08:17:27.564Z,67.47
2018-02-21T08:19:55.034Z,71.85
2018-02-21T08:22:22.687Z,66.10
2018-02-21T08:24:50.453Z,76.33
2018-02-21T08:27:20.773Z,63.73
2018-02-21T08:29:48.352Z,71.00
2018-02-21T08:32:15.799Z,72.07
2018-02-21T08:34:44.241Z,49.08
2018-02-21T08:37:11.698Z,59.60
2018-02-21T08:39:39.148Z,74.17
2018-02-21T08:42:06.649Z,64.05
2018-02-21T08:44:34.093Z,63.63
2018-02-21T08:47:01.574Z,74.97
2018-02-21T08:49:29.020Z,74.37
2018-02-21T08:51:56.510Z,60.05
2018-02-21T08:54:23.995Z,76.80
2018-02-21T08:56:52.244Z,52.65
2018-02-21T08:59:19.753Z,72.60
2018-02-21T09:01:47.212Z,49.13
2018-02-21T09:04:14.711Z,76.30
2018-02-21T09:06:42.196Z,60.60
2018-02-21T09:09:09.914Z,61.65
2018-02-21T09:11:40.802Z,65.60
2018-02-21T09:14:08.305Z,57.70
2018-02-21T09:16:36.401Z,56.00
2018-02-21T09:19:03.839Z,58.60
2018-02-21T09:21:31.323Z,59.17
2018-02-21T09:23:58.798Z,57.27
2018-02-21T09:26:26.276Z,63.97
2018-02-21T09:28:53.755Z,59.10
2018-02-21T09:31:21.203Z,47.05
2018-02-21T09:33:48.676Z,59.63
2018-02-21T09:36:16.160Z,64.63
2018-02-21T09:38:43.617Z,35.90
2018-02-21T09:41:14.833Z,63.50
2018-02-21T09:43:42.314Z,70.23
2018-02-21T09:46:09.817Z,63.63
2018-02-21T09:48:37.360Z,63.05
2018-02-21T09:51:04.803Z,58.28
2018-02-21T09:53:32.241Z,53.60
2018-02-21T09:56:00.589Z,65.57
2018-02-21T09:58:28.295Z,34.83
2018-02-21T10:00:55.771Z,52.90
2018-02-21T10:03:23.249Z,54.57
2018-02-21T10:05:50.709Z,51.17
2018-02-21T10:08:18.197Z,51.63
2018-02-21T10:10:45.729Z,64.27
2018-02-21T10:13:16.981Z,41.47
2018-02-21T10:15:44.457Z,34.00
2018-02-21T10:18:13.097Z,35.03
2018-02-21T10:20:40.575Z,27.08
2018-02-21T10:23:08.020Z,56.47
2018-02-21T10:25:35.468Z,51.53
2018-02-21T10:28:02.953Z,55.63
2018-02-21T10:30:30.412Z,55.97
2018-02-21T10:32:57.872Z,36.60
2018-02-21T10:35:26.237Z,59.78
2018-02-21T10:37:53.709Z,54.03
2018-02-21T10:40:21.160Z,41.10
2018-02-21T10:42:48.628Z,48.67
2018-02-21T10:45:16.162Z,52.37
2018-02-21T10:47:43.636Z,39.63
2018-02-21T10:50:11.133Z,60.43
2018-02-21T10:52:40.295Z,47.67
2018-02-21T10:55:07.724Z,38.50
2018-02-21T10:57:38.585Z,46.60
2018-02-21T11:00:06.067Z,44.87
2018-02-21T11:02:33.559Z,62.05
2018-02-21T11:05:00.994Z,44.20
2018-02-21T11:07:29.264Z,53.75
2018-02-21T11:09:56.714Z,57.10
2018-02-21T11:12:25.088Z,44.67
2018-02-21T11:14:52.595Z,47.90
2018-02-21T11:17:20.057Z,56.70
2018-02-21T11:19:47.560Z,48.83
2018-02-21T11:22:15.056Z,50.10
2018-02-21T11:24:43.107Z,50.66
2018-02-21T11:27:10.733Z,39.08
2018-02-21T11:29:38.861Z,53.27
2018-02-21T11:32:06.328Z,30.83
2018-02-21T11:34:33.823Z,44.73
2018-02-21T11:37:02.220Z,35.67
2018-02-21T11:39:30.487Z,46.90
2018-02-21T11:41:58.814Z,44.45
2018-02-21T11:44:27.181Z,26.35
2018-02-21T11:46:54.718Z,48.17
2018-02-21T11:49:22.949Z,40.57
2018-02-21T11:51:50.494Z,44.10
2018-02-21T11:54:17.959Z,15.95
2018-02-21T11:56:46.171Z,31.73
2018-02-21T11:59:14.427Z,43.55
2018-02-21T12:01:41.881Z,32.40
2018-02-21T12:04:09.333Z,42.20
2018-02-21T12:06:36.797Z,43.00
2018-02-21T12:09:04.269Z,33.77
2018-02-21T12:11:31.723Z,25.40
2018-02-21T12:14:04.214Z,33.18
2018-02-21T12:16:32.463Z,48.03
2018-02-21T12:19:00.220Z,33.40
2018-02-21T12:21:27.684Z,38.75
2018-02-21T12:23:55.171Z,43.03
2018-02-21T12:26:22.636Z,34.60
2018-02-21T12:28:50.081Z,35.05
2018-02-21T12:31:17.546Z,30.87
2018-02-21T12:33:45.061Z,36.23
2018-02-21T12:36:12.501Z,31.20
2018-02-21T12:38:39.956Z,30.73
2018-02-21T12:41:13.034Z,28.92
2018-02-21T12:43:40.540Z,44.50
2018-02-21T12:46:09.729Z,22.37
2018-02-21T12:48:37.213Z,37.17
2018-02-21T12:51:04.664Z,40.35
2018-02-21T12:53:32.401Z,35.83
2018-02-21T12:55:59.861Z,25.20
2018-02-21T12:58:28.114Z,41.13
2018-02-21T13:00:55.601Z,24.53
2018-02-21T13:03:23.074Z,31.80
2018-02-21T13:05:50.592Z,32.45
2018-02-21T13:08:18.064Z,42.23
2018-02-21T13:10:45.644Z,42.58
2018-02-21T13:13:13.120Z,28.10
2018-02-21T13:15:42.258Z,45.00
2018-02-21T13:18:09.742Z,28.97
2018-02-21T13:20:37.233Z,31.62
2018-02-21T13:23:04.674Z,26.60
2018-02-21T13:25:32.714Z,28.42
2018-02-21T13:28:00.204Z,28.45
2018-02-21T13:30:27.669Z,34.58
2018-02-21T13:32:55.740Z,39.33
2018-02-21T13:35:23.236Z,33.05
2018-02-21T13:37:50.672Z,38.63
2018-02-21T13:40:18.117Z,32.87
2018-02-21T13:42:45.580Z,31.87
2018-02-21T13:45:13.302Z,42.43
2018-02-21T13:47:44.581Z,35.53
2018-02-21T13:50:12.005Z,21.53
2018-02-21T13:52:39.928Z,25.40
2018-02-21T13:55:07.429Z,34.10
2018-02-21T13:57:34.897Z,34.70
2018-02-21T14:00:02.373Z,25.73
2018-02-21T14:02:29.904Z,36.33
2018-02-21T14:04:57.379Z,75.10
2018-02-21T14:07:24.886Z,29.90
2018-02-21T14:09:52.472Z,25.87
2018-02-21T14:12:19.913Z,38.13
2018-02-21T14:14:47.388Z,22.35
2018-02-21T14:17:18.028Z,30.57
2018-02-21T14:19:45.623Z,18.47
2018-02-21T14:22:13.211Z,24.83
2018-02-21T14:24:40.673Z,27.40
2018-02-21T14:27:08.132Z,28.33
2018-02-21T14:29:35.593Z,20.30
2018-02-21T14:32:06.358Z,19.85
2018-02-21T14:34:33.840Z,33.33
2018-02-21T14:37:01.303Z,19.20
2018-02-21T14:39:28.765Z,26.58
2018-02-21T14:41:57.040Z,27.40
2018-02-21T14:44:24.569Z,32.10
2018-02-21T14:46:56.845Z,27.07
2018-02-21T14:49:24.303Z,21.43
2018-02-21T14:51:52.775Z,21.52
2018-02-21T14:54:20.232Z,26.90
2018-02-21T14:56:47.702Z,20.15
2018-02-21T14:59:15.145Z,23.73
2018-02-21T15:01:45.985Z,16.47
2018-02-21T15:04:13.456Z,25.17
2018-02-21T15:06:41.420Z,35.17
2018-02-21T15:09:09.703Z,26.87
2018-02-21T15:11:37.917Z,27.53
2018-02-21T15:14:06.633Z,36.20
2018-02-21T15:16:34.500Z,30.60
2018-02-21T15:19:01.965Z,31.63
2018-02-21T15:21:29.477Z,29.70
2018-02-21T15:23:56.932Z,38.47
2018-02-21T15:26:25.421Z,32.30
2018-02-21T15:28:53.049Z,23.77
2018-02-21T15:31:20.493Z,28.53
2018-02-21T15:33:47.941Z,18.70
2018-02-21T15:36:15.403Z,23.95
2018-02-21T15:38:42.960Z,26.07
2018-02-21T15:41:10.370Z,31.87
2018-02-21T15:43:38.780Z,24.23
2018-02-21T15:46:06.253Z,28.30
2018-02-21T15:48:37.505Z,29.77
2018-02-21T15:51:04.962Z,28.98
2018-02-21T15:53:32.454Z,21.23
2018-02-21T15:55:59.893Z,30.23
2018-02-21T15:58:27.324Z,29.03
2018-02-21T16:00:54.913Z,33.10
2018-02-21T16:03:22.916Z,28.36
2018-02-21T16:05:50.517Z,21.15
2018-02-21T16:08:17.965Z,21.10
2018-02-21T16:10:45.441Z,36.93
2018-02-21T16:13:12.902Z,25.52
2018-02-21T16:15:40.436Z,30.52
2018-02-21T16:18:07.910Z,24.73
2018-02-21T16:20:35.444Z,34.30
2018-02-21T16:23:02.884Z,29.85
2018-02-21T16:25:30.348Z,26.92
2018-02-21T16:27:58.029Z,29.00
2018-02-21T16:30:25.816Z,30.76
2018-02-21T16:32:53.345Z,35.97
2018-02-21T16:35:20.804Z,19.60
2018-02-21T16:37:48.272Z,28.55
2018-02-21T16:40:15.748Z,32.03
2018-02-21T16:42:43.292Z,25.17
2018-02-21T16:45:10.742Z,23.43
2018-02-21T16:47:39.203Z,29.73
2018-02-21T16:50:06.657Z,26.42
2018-02-21T16:52:34.142Z,25.83
2018-02-21T16:55:01.809Z,24.87
2018-02-21T16:57:31.061Z,24.00
2018-02-21T16:59:58.851Z,34.45
2018-02-21T17:02:26.312Z,19.70
2018-02-21T17:04:54.415Z,21.57
2018-02-21T17:07:23.569Z,31.70
2018-02-21T17:09:51.066Z,37.53
2018-02-21T17:12:19.290Z,37.80
2018-02-21T17:14:47.541Z,39.13
2018-02-21T17:17:15.025Z,40.75
2018-02-21T17:19:43.502Z,35.70
2018-02-21T17:22:10.982Z,34.10
2018-02-21T17:24:38.461Z,39.10
2018-02-21T17:27:05.913Z,29.83
2018-02-21T17:29:33.372Z,38.97
2018-02-21T17:32:01.800Z,20.62
2018-02-21T17:34:34.411Z,32.10
2018-02-21T17:37:02.390Z,38.03
2018-02-21T17:39:29.855Z,45.27
2018-02-21T17:41:57.357Z,41.53
2018-02-21T17:44:24.854Z,38.10
2018-02-21T17:46:52.314Z,40.12
2018-02-21T17:49:19.770Z,43.63
2018-02-21T17:51:47.256Z,42.90
2018-02-21T17:54:15.256Z,47.85
2018-02-21T17:56:45.726Z,46.10
2018-02-21T17:59:13.193Z,50.50
2018-02-21T18:01:41.645Z,34.28
2018-02-21T18:04:09.136Z,45.33
2018-02-21T18:06:36.581Z,42.27
2018-02-21T18:09:04.094Z,43.70
2018-02-21T18:11:31.556Z,44.43
2018-02-21T18:13:59.144Z,37.58
2018-02-21T18:16:26.617Z,38.50
2018-02-21T18:18:54.588Z,40.83
2018-02-21T18:21:27.633Z,40.95
2018-02-21T18:23:55.116Z,42.62
2018-02-21T18:26:22.596Z,39.72
2018-02-21T18:28:50.886Z,36.10
2018-02-21T18:31:20.050Z,30.10
2018-02-21T18:33:47.516Z,37.37
2018-02-21T18:36:18.567Z,39.10
2018-02-21T18:38:45.997Z,31.80
2018-02-21T18:41:13.481Z,38.50
2018-02-21T18:43:41.718Z,46.67
2018-02-21T18:46:10.293Z,36.28
2018-02-21T18:48:37.800Z,40.87
2018-02-21T18:51:05.692Z,38.30
2018-02-21T18:53:35.154Z,40.97
2018-02-21T18:56:02.633Z,35.35
2018-02-21T18:58:30.262Z,40.78
2018-02-21T19:00:58.383Z,39.20
2018-02-21T19:03:26.643Z,41.67
2018-02-21T19:05:57.965Z,38.80
2018-02-21T19:08:25.420Z,36.50
2018-02-21T19:10:52.942Z,32.00
2018-02-21T19:13:20.380Z,28.70
2018-02-21T19:15:48.718Z,35.88
2018-02-21T19:18:16.173Z,37.93
2018-02-21T19:20:47.957Z,40.53
2018-02-21T19:23:15.493Z,26.50
2018-02-21T19:25:43.740Z,42.33
2018-02-21T19:28:11.340Z,42.57
2018-02-21T19:30:41.416Z,39.10
2018-02-21T19:33:08.888Z,42.00
2018-02-21T19:35:36.347Z,35.07
2018-02-21T19:38:03.808Z,37.67
2018-02-21T19:40:31.299Z,29.13
2018-02-21T19:42:58.837Z,40.00
2018-02-21T19:45:26.276Z,42.23
2018-02-21T19:47:53.816Z,41.90
2018-02-21T19:50:22.208Z,40.24
2018-02-21T19:52:49.698Z,29.30
2018-02-21T19:55:17.187Z,38.37
2018-02-21T19:57:45.580Z,38.78
2018-02-21T20:00:13.042Z,37.95
2018-02-21T20:02:41.194Z,36.53
2018-02-21T20:05:08.860Z,40.20
2018-02-21T20:07:36.303Z,42.40
2018-02-21T20:10:03.779Z,35.78
2018-02-21T20:12:31.215Z,36.70
2018-02-21T20:14:58.722Z,35.73
2018-02-21T20:17:26.183Z,36.92
2018-02-21T20:19:53.655Z,39.40
2018-02-21T20:22:28.576Z,34.80
2018-02-21T20:24:56.053Z,38.23
2018-02-21T20:27:23.517Z,38.33
2018-02-21T20:29:51.032Z,30.73
2018-02-21T20:32:18.483Z,38.67
2018-02-21T20:34:46.001Z,42.65
2018-02-21T20:37:17.240Z,36.92
2018-02-21T20:39:45.702Z,32.70
2018-02-21T20:42:13.178Z,43.15
2018-02-21T20:44:40.719Z,39.30
2018-02-21T20:47:08.223Z,33.33
2018-02-21T20:49:35.656Z,29.75
2018-02-21T20:52:04.800Z,37.50
2018-02-21T20:54:32.283Z,34.37
2018-02-21T20:56:59.754Z,38.57
2018-02-21T20:59:27.242Z,27.93
2018-02-21T21:01:55.478Z,28.47
2018-02-21T21:04:23.351Z,41.20
2018-02-21T21:06:50.816Z,30.47
2018-02-21T21:09:19.052Z,30.77
2018-02-21T21:11:48.512Z,40.20
2018-02-21T21:14:16.738Z,28.20
2018-02-21T21:16:44.184Z,31.10
2018-02-21T21:19:12.001Z,35.16
2018-02-21T21:21:40.260Z,28.67
2018-02-21T21:24:07.777Z,32.08
2018-02-21T21:26:35.340Z,27.57
2018-02-21T21:29:03.721Z,32.77
2018-02-21T21:31:31.409Z,35.67
2018-02-21T21:33:58.896Z,30.80
2018-02-21T21:36:27.667Z,33.17
2018-02-21T21:38:55.325Z,35.40
2018-02-21T21:41:22.768Z,31.00
2018-02-21T21:43:51.268Z,32.07
2018-02-21T21:46:18.840Z,31.47
2018-02-21T21:48:46.372Z,22.30
2018-02-21T21:51:13.860Z,29.52
2018-02-21T21:53:41.352Z,24.03
2018-02-21T21:56:08.802Z,30.70
2018-02-21T21:58:36.273Z,27.07
2018-02-21T22:01:03.891Z,23.80
2018-02-21T22:03:31.731Z,24.27
2018-02-21T22:05:59.558Z,26.30
2018-02-21T22:08:30.052Z,29.37
2018-02-21T22:10:57.952Z,25.98
2018-02-21T22:13:25.443Z,27.97
2018-02-21T22:15:52.856Z,24.30
2018-02-21T22:18:20.332Z,22.38
2018-02-21T22:20:49.988Z,18.80
2018-02-21T22:23:18.444Z,22.45
2018-02-21T22:25:45.941Z,24.25
2018-02-21T22:28:14.351Z,30.62
2018-02-21T22:30:42.071Z,34.37
2018-02-21T22:33:09.677Z,28.52
2018-02-21T22:35:37.430Z,24.67
2018-02-21T22:38:04.887Z,28.70
2018-02-21T22:40:34.195Z,25.83
2018-02-21T22:43:01.852Z,21.70
2018-02-21T22:45:29.693Z,23.80
2018-02-21T22:47:57.620Z,30.50
2018-02-21T22:50:25.152Z,19.37
2018-02-21T22:52:52.601Z,27.63
2018-02-21T22:55:20.101Z,24.52
2018-02-21T22:57:47.620Z,25.70
2018-02-21T23:00:15.595Z,22.50
2018-02-21T23:02:43.057Z,26.63
2018-02-21T23:05:11.488Z,27.00
2018-02-21T23:07:39.732Z,25.83
2018-02-21T23:10:07.210Z,26.30
2018-02-21T23:12:34.648Z,22.40
2018-02-21T23:15:02.114Z,28.67
2018-02-21T23:17:30.293Z,22.02
2018-02-21T23:19:57.741Z,22.77
2018-02-21T23:22:25.705Z,24.30
2018-02-21T23:24:58.595Z,25.97
2018-02-21T23:27:26.061Z,25.50
2018-02-21T23:29:53.528Z,27.67
2018-02-21T23:32:21.027Z,25.07
2018-02-21T23:34:48.484Z,19.17
2018-02-21T23:37:15.980Z,22.77
2018-02-21T23:39:44.357Z,22.37
2018-02-21T23:42:11.818Z,23.00
2018-02-21T23:44:39.296Z,20.60
2018-02-21T23:47:06.804Z,22.70
2018-02-21T23:49:34.519Z,20.50
2018-02-21T23:52:01.968Z,22.75
2018-02-21T23:54:29.433Z,22.10
2018-02-21T23:56:57.380Z,19.47
2018-02-21T23:59:25.648Z,25.15
